sensor_id;sensor_type;location;lat;lon;timestamp;P1;durP1;ratioP1;P2;durP2;ratioP2
31182;SDS011;17813;0.000;0.000;2024-03-23T00:52:10;7.90;;;7.10;;
31182;SDS011;17813;0.000;0.000;2024-03-23T00:54:38;8.77;;;7.87;;
31182;SDS011;17813;0.000;0.000;2024-03-23T00:57:05;8.03;;;7.23;;
31182;SDS011;17813;0.000;0.000;2024-03-23T00:59:33;8.40;;;7.50;;
31182;SDS011;17813;0.000;0.000;2024-03-23T01:02:01;8.00;;;7.20;;
31182;SDS011;17813;0.000;0.000;2024-03-23T01:04:28;9.07;;;7.70;;
31182;SDS011;17813;0.000;0.000;2024-03-23T01:06:54;8.70;;;6.70;;
31182;SDS011;17813;0.000;0.000;2024-03-23T01:09:21;7.97;;;7.00;;
31182;SDS011;17813;0.000;0.000;2024-03-23T01:11:50;8.63;;;6.90;;
31182;SDS011;17813;0.000;0.000;2024-03-23T01:14:19;8.23;;;7.00;;
31182;SDS011;17813;0.000;0.000;2024-03-23T01:16:47;8.43;;;6.97;;
31182;SDS011;17813;0.000;0.000;2024-03-23T01:19:14;8.70;;;7.10;;
31182;SDS011;17813;0.000;0.000;2024-03-23T01:21:42;8.17;;;7.37;;
31182;SDS011;17813;0.000;0.000;2024-03-23T01:24:09;8.17;;;7.33;;
31182;SDS011;17813;0.000;0.000;2024-03-23T01:26:37;9.00;;;8.10;;
31182;SDS011;17813;0.000;0.000;2024-03-23T01:29:05;10.63;;;9.53;;
31182;SDS011;17813;0.000;0.000;2024-03-23T01:31:31;10.07;;;8.87;;
31182;SDS011;17813;0.000;0.000;2024-03-23T01:33:58;10.73;;;8.90;;
31182;SDS011;17813;0.000;0.000;2024-03-23T01:36:25;9.93;;;8.83;;
31182;SDS011;17813;0.000;0.000;2024-03-23T01:38:52;10.50;;;9.17;;
31182;SDS011;17813;0.000;0.000;2024-03-23T01:41:19;10.97;;;9.87;;
31182;SDS011;17813;0.000;0.000;2024-03-23T01:43:46;10.57;;;9.47;;
31182;SDS011;17813;0.000;0.000;2024-03-23T01:46:13;10.70;;;9.60;;
31182;SDS011;17813;0.000;0.000;2024-03-23T01:48:42;11.13;;;9.63;;
31182;SDS011;17813;0.000;0.000;2024-03-23T01:51:09;10.90;;;9.80;;
31182;SDS011;17813;0.000;0.000;2024-03-23T01:53:36;10.60;;;9.50;;
31182;SDS011;17813;0.000;0.000;2024-03-23T01:56:06;12.80;;;10.67;;
31182;SDS011;17813;0.000;0.000;2024-03-23T01:58:34;14.03;;;12.37;;
31182;SDS011;17813;0.000;0.000;2024-03-23T02:01:01;14.27;;;12.73;;
31182;SDS011;17813;0.000;0.000;2024-03-23T02:03:28;16.33;;;14.17;;
31182;SDS011;17813;0.000;0.000;2024-03-23T02:05:55;14.20;;;12.33;;
31182;SDS011;17813;0.000;0.000;2024-03-23T02:08:23;13.33;;;11.93;;
31182;SDS011;17813;0.000;0.000;2024-03-23T02:10:51;11.97;;;10.77;;
31182;SDS011;17813;0.000;0.000;2024-03-23T02:13:18;13.63;;;11.43;;
31182;SDS011;17813;0.000;0.000;2024-03-23T02:15:45;13.30;;;11.43;;
31182;SDS011;17813;0.000;0.000;2024-03-23T02:18:13;16.97;;;14.33;;
31182;SDS011;17813;0.000;0.000;2024-03-23T02:20:41;18.97;;;15.57;;
31182;SDS011;17813;0.000;0.000;2024-03-23T02:23:15;17.50;;;13.97;;
31182;SDS011;17813;0.000;0.000;2024-03-23T02:25:44;19.83;;;16.10;;
31182;SDS011;17813;0.000;0.000;2024-03-23T02:28:12;18.20;;;15.03;;
31182;SDS011;17813;0.000;0.000;2024-03-23T02:30:40;31.03;;;22.87;;
31182;SDS011;17813;0.000;0.000;2024-03-23T02:33:08;23.37;;;18.60;;
31182;SDS011;17813;0.000;0.000;2024-03-23T02:35:36;22.10;;;17.33;;
31182;SDS011;17813;0.000;0.000;2024-03-23T02:38:03;25.77;;;19.70;;
31182;SDS011;17813;0.000;0.000;2024-03-23T02:40:30;27.73;;;20.87;;
31182;SDS011;17813;0.000;0.000;2024-03-23T02:42:58;26.57;;;19.57;;
31182;SDS011;17813;0.000;0.000;2024-03-23T02:45:26;24.40;;;19.23;;
31182;SDS011;17813;0.000;0.000;2024-03-23T02:47:54;25.73;;;19.77;;
31182;SDS011;17813;0.000;0.000;2024-03-23T02:50:22;31.43;;;22.20;;
31182;SDS011;17813;0.000;0.000;2024-03-23T02:52:49;26.27;;;19.93;;
31182;SDS011;17813;0.000;0.000;2024-03-23T02:55:16;26.80;;;19.80;;
31182;SDS011;17813;0.000;0.000;2024-03-23T02:57:45;37.90;;;24.53;;
31182;SDS011;17813;0.000;0.000;2024-03-23T03:00:12;46.50;;;30.60;;
31182;SDS011;17813;0.000;0.000;2024-03-23T03:02:41;29.73;;;23.00;;
31182;SDS011;17813;0.000;0.000;2024-03-23T03:05:10;29.50;;;21.30;;
31182;SDS011;17813;0.000;0.000;2024-03-23T03:07:39;28.67;;;22.17;;
31182;SDS011;17813;0.000;0.000;2024-03-23T03:10:06;32.17;;;23.23;;
31182;SDS011;17813;0.000;0.000;2024-03-23T03:12:37;38.93;;;26.03;;
31182;SDS011;17813;0.000;0.000;2024-03-23T03:15:04;31.57;;;22.70;;
31182;SDS011;17813;0.000;0.000;2024-03-23T03:17:31;35.53;;;24.57;;
31182;SDS011;17813;0.000;0.000;2024-03-23T03:19:59;40.47;;;27.83;;
31182;SDS011;17813;0.000;0.000;2024-03-23T03:22:25;38.53;;;26.53;;
31182;SDS011;17813;0.000;0.000;2024-03-23T03:24:53;38.67;;;25.00;;
31182;SDS011;17813;0.000;0.000;2024-03-23T03:27:20;31.17;;;22.73;;
31182;SDS011;17813;0.000;0.000;2024-03-23T03:29:48;40.87;;;25.97;;
31182;SDS011;17813;0.000;0.000;2024-03-23T03:32:16;37.03;;;24.80;;
31182;SDS011;17813;0.000;0.000;2024-03-23T03:34:43;37.60;;;25.40;;
31182;SDS011;17813;0.000;0.000;2024-03-23T03:37:11;41.43;;;25.90;;
31182;SDS011;17813;0.000;0.000;2024-03-23T03:39:38;46.10;;;29.40;;
31182;SDS011;17813;0.000;0.000;2024-03-23T03:42:09;46.60;;;29.30;;
31182;SDS011;17813;0.000;0.000;2024-03-23T03:44:36;42.80;;;27.70;;
31182;SDS011;17813;0.000;0.000;2024-03-23T03:47:03;42.93;;;26.60;;
31182;SDS011;17813;0.000;0.000;2024-03-23T03:49:31;43.97;;;29.93;;
31182;SDS011;17813;0.000;0.000;2024-03-23T03:52:16;42.07;;;30.20;;
31182;SDS011;17813;0.000;0.000;2024-03-23T03:54:43;40.23;;;28.20;;
31182;SDS011;17813;0.000;0.000;2024-03-23T03:57:10;41.23;;;28.80;;
31182;SDS011;17813;0.000;0.000;2024-03-23T03:59:37;38.60;;;28.97;;
31182;SDS011;17813;0.000;0.000;2024-03-23T04:02:05;36.37;;;27.37;;
31182;SDS011;17813;0.000;0.000;2024-03-23T04:04:33;37.43;;;28.90;;
31182;SDS011;17813;0.000;0.000;2024-03-23T04:07:03;34.60;;;26.63;;
31182;SDS011;17813;0.000;0.000;2024-03-23T04:09:31;35.63;;;27.43;;
31182;SDS011;17813;0.000;0.000;2024-03-23T04:11:59;32.87;;;26.37;;
31182;SDS011;17813;0.000;0.000;2024-03-23T04:14:26;35.90;;;27.70;;
31182;SDS011;17813;0.000;0.000;2024-03-23T04:16:53;33.33;;;26.83;;
31182;SDS011;17813;0.000;0.000;2024-03-23T04:19:21;34.87;;;28.37;;
31182;SDS011;17813;0.000;0.000;2024-03-23T04:21:48;36.60;;;28.70;;
31182;SDS011;17813;0.000;0.000;2024-03-23T04:24:14;34.63;;;27.00;;
31182;SDS011;17813;0.000;0.000;2024-03-23T04:26:42;32.97;;;26.50;;
31182;SDS011;17813;0.000;0.000;2024-03-23T04:29:12;37.23;;;28.53;;
31182;SDS011;17813;0.000;0.000;2024-03-23T04:31:39;34.50;;;26.90;;
31182;SDS011;17813;0.000;0.000;2024-03-23T04:34:05;34.63;;;27.63;;
31182;SDS011;17813;0.000;0.000;2024-03-23T04:36:32;33.23;;;26.40;;
31182;SDS011;17813;0.000;0.000;2024-03-23T04:38:59;33.27;;;26.00;;
31182;SDS011;17813;0.000;0.000;2024-03-23T04:41:28;33.13;;;25.70;;
31182;SDS011;17813;0.000;0.000;2024-03-23T04:43:56;34.37;;;26.00;;
31182;SDS011;17813;0.000;0.000;2024-03-23T04:46:23;34.47;;;26.67;;
31182;SDS011;17813;0.000;0.000;2024-03-23T04:48:50;35.97;;;28.13;;
31182;SDS011;17813;0.000;0.000;2024-03-23T04:51:21;36.47;;;28.57;;
31182;SDS011;17813;0.000;0.000;2024-03-23T04:54:00;36.93;;;28.87;;
31182;SDS011;17813;0.000;0.000;2024-03-23T04:56:27;36.93;;;28.00;;
31182;SDS011;17813;0.000;0.000;2024-03-23T04:58:55;36.93;;;28.23;;
31182;SDS011;17813;0.000;0.000;2024-03-23T05:01:27;38.03;;;28.07;;
31182;SDS011;17813;0.000;0.000;2024-03-23T05:03:55;36.53;;;28.27;;
31182;SDS011;17813;0.000;0.000;2024-03-23T05:06:23;40.93;;;29.00;;
31182;SDS011;17813;0.000;0.000;2024-03-23T05:08:51;38.17;;;28.20;;
31182;SDS011;17813;0.000;0.000;2024-03-23T05:11:18;37.93;;;28.57;;
31182;SDS011;17813;0.000;0.000;2024-03-23T05:13:47;37.60;;;26.97;;
31182;SDS011;17813;0.000;0.000;2024-03-23T05:16:14;38.37;;;27.63;;
31182;SDS011;17813;0.000;0.000;2024-03-23T05:18:40;37.57;;;27.33;;
31182;SDS011;17813;0.000;0.000;2024-03-23T05:21:07;35.67;;;26.40;;
31182;SDS011;17813;0.000;0.000;2024-03-23T05:23:35;35.57;;;27.63;;
31182;SDS011;17813;0.000;0.000;2024-03-23T05:26:04;31.00;;;25.77;;
31182;SDS011;17813;0.000;0.000;2024-03-23T05:28:31;30.97;;;25.13;;
31182;SDS011;17813;0.000;0.000;2024-03-23T05:31:02;34.20;;;26.30;;
31182;SDS011;17813;0.000;0.000;2024-03-23T05:33:29;32.20;;;25.00;;
31182;SDS011;17813;0.000;0.000;2024-03-23T05:36:00;35.37;;;25.97;;
31182;SDS011;17813;0.000;0.000;2024-03-23T05:38:28;34.13;;;26.23;;
31182;SDS011;17813;0.000;0.000;2024-03-23T05:40:59;34.20;;;24.93;;
31182;SDS011;17813;0.000;0.000;2024-03-23T05:43:27;31.90;;;24.43;;
31182;SDS011;17813;0.000;0.000;2024-03-23T05:45:56;32.73;;;24.77;;
31182;SDS011;17813;0.000;0.000;2024-03-23T05:48:23;33.40;;;26.83;;
31182;SDS011;17813;0.000;0.000;2024-03-23T05:50:53;35.10;;;25.70;;
31182;SDS011;17813;0.000;0.000;2024-03-23T05:53:21;31.03;;;24.40;;
31182;SDS011;17813;0.000;0.000;2024-03-23T05:55:50;32.60;;;25.70;;
31182;SDS011;17813;0.000;0.000;2024-03-23T05:58:21;29.87;;;24.03;;
31182;SDS011;17813;0.000;0.000;2024-03-23T06:00:49;30.47;;;24.60;;
31182;SDS011;17813;0.000;0.000;2024-03-23T06:03:25;28.83;;;22.60;;
31182;SDS011;17813;0.000;0.000;2024-03-23T06:05:55;29.70;;;23.90;;
31182;SDS011;17813;0.000;0.000;2024-03-23T06:08:23;31.50;;;26.13;;
31182;SDS011;17813;0.000;0.000;2024-03-23T06:10:50;32.30;;;26.87;;
31182;SDS011;17813;0.000;0.000;2024-03-23T06:13:20;30.33;;;25.07;;
31182;SDS011;17813;0.000;0.000;2024-03-23T06:15:51;30.83;;;24.87;;
31182;SDS011;17813;0.000;0.000;2024-03-23T06:18:18;32.13;;;25.27;;
31182;SDS011;17813;0.000;0.000;2024-03-23T06:20:45;29.73;;;24.73;;
31182;SDS011;17813;0.000;0.000;2024-03-23T06:23:12;27.93;;;23.73;;
31182;SDS011;17813;0.000;0.000;2024-03-23T06:25:40;31.80;;;26.27;;
31182;SDS011;17813;0.000;0.000;2024-03-23T06:28:07;29.03;;;23.57;;
31182;SDS011;17813;0.000;0.000;2024-03-23T06:30:34;28.07;;;23.03;;
31182;SDS011;17813;0.000;0.000;2024-03-23T06:33:01;27.03;;;23.37;;
31182;SDS011;17813;0.000;0.000;2024-03-23T06:35:30;25.20;;;22.30;;
31182;SDS011;17813;0.000;0.000;2024-03-23T06:37:59;23.43;;;20.93;;
31182;SDS011;17813;0.000;0.000;2024-03-23T06:40:27;23.40;;;19.57;;
31182;SDS011;17813;0.000;0.000;2024-03-23T06:42:54;20.77;;;18.53;;
31182;SDS011;17813;0.000;0.000;2024-03-23T06:45:22;19.53;;;17.53;;
31182;SDS011;17813;0.000;0.000;2024-03-23T06:47:49;20.00;;;18.00;;
31182;SDS011;17813;0.000;0.000;2024-03-23T06:50:17;19.40;;;17.40;;
31182;SDS011;17813;0.000;0.000;2024-03-23T06:52:44;19.80;;;17.70;;
31182;SDS011;17813;0.000;0.000;2024-03-23T06:55:10;18.60;;;16.70;;
31182;SDS011;17813;0.000;0.000;2024-03-23T06:57:37;19.60;;;17.60;;
31182;SDS011;17813;0.000;0.000;2024-03-23T07:00:04;18.90;;;17.00;;
31182;SDS011;17813;0.000;0.000;2024-03-23T07:02:35;18.47;;;16.67;;
31182;SDS011;17813;0.000;0.000;2024-03-23T07:05:02;19.13;;;17.23;;
31182;SDS011;17813;0.000;0.000;2024-03-23T07:07:29;21.30;;;19.03;;
31182;SDS011;17813;0.000;0.000;2024-03-23T07:09:56;21.67;;;18.93;;
31182;SDS011;17813;0.000;0.000;2024-03-23T07:12:24;22.20;;;19.43;;
31182;SDS011;17813;0.000;0.000;2024-03-23T07:14:52;21.93;;;19.67;;
31182;SDS011;17813;0.000;0.000;2024-03-23T07:17:20;20.67;;;18.57;;
31182;SDS011;17813;0.000;0.000;2024-03-23T07:19:48;21.07;;;18.87;;
31182;SDS011;17813;0.000;0.000;2024-03-23T07:22:15;21.00;;;18.87;;
31182;SDS011;17813;0.000;0.000;2024-03-23T07:24:44;20.80;;;18.70;;
31182;SDS011;17813;0.000;0.000;2024-03-23T07:27:11;20.17;;;18.10;;
31182;SDS011;17813;0.000;0.000;2024-03-23T07:29:39;19.00;;;17.00;;
31182;SDS011;17813;0.000;0.000;2024-03-23T07:32:08;19.30;;;17.33;;
31182;SDS011;17813;0.000;0.000;2024-03-23T07:34:37;18.13;;;16.40;;
31182;SDS011;17813;0.000;0.000;2024-03-23T07:37:05;17.43;;;15.73;;
31182;SDS011;17813;0.000;0.000;2024-03-23T07:39:33;16.60;;;15.00;;
31182;SDS011;17813;0.000;0.000;2024-03-23T07:41:59;18.03;;;16.23;;
31182;SDS011;17813;0.000;0.000;2024-03-23T07:44:26;18.13;;;16.33;;
31182;SDS011;17813;0.000;0.000;2024-03-23T07:46:53;18.43;;;16.63;;
31182;SDS011;17813;0.000;0.000;2024-03-23T07:49:20;17.87;;;16.07;;
31182;SDS011;17813;0.000;0.000;2024-03-23T07:51:48;18.23;;;16.43;;
31182;SDS011;17813;0.000;0.000;2024-03-23T07:54:16;17.00;;;15.30;;
31182;SDS011;17813;0.000;0.000;2024-03-23T07:56:46;16.80;;;15.20;;
31182;SDS011;17813;0.000;0.000;2024-03-23T07:59:17;16.80;;;15.10;;
31182;SDS011;17813;0.000;0.000;2024-03-23T08:01:50;17.33;;;15.63;;
31182;SDS011;17813;0.000;0.000;2024-03-23T08:04:16;18.20;;;16.50;;
31182;SDS011;17813;0.000;0.000;2024-03-23T08:06:44;17.13;;;15.43;;
31182;SDS011;17813;0.000;0.000;2024-03-23T08:09:12;17.13;;;15.40;;
31182;SDS011;17813;0.000;0.000;2024-03-23T08:11:42;16.20;;;14.60;;
31182;SDS011;17813;0.000;0.000;2024-03-23T08:14:12;10.57;;;9.47;;
31182;SDS011;17813;0.000;0.000;2024-03-23T08:16:39;5.67;;;5.07;;
31182;SDS011;17813;0.000;0.000;2024-03-23T08:19:08;5.63;;;5.13;;
31182;SDS011;17813;0.000;0.000;2024-03-23T08:21:36;5.17;;;4.77;;
31182;SDS011;17813;0.000;0.000;2024-03-23T08:24:03;3.93;;;3.63;;
31182;SDS011;17813;0.000;0.000;2024-03-23T08:26:32;3.57;;;3.27;;
31182;SDS011;17813;0.000;0.000;2024-03-23T08:29:01;2.30;;;2.10;;
31182;SDS011;17813;0.000;0.000;2024-03-23T08:31:29;2.10;;;1.90;;
31182;SDS011;17813;0.000;0.000;2024-03-23T08:33:58;3.03;;;2.30;;
31182;SDS011;17813;0.000;0.000;2024-03-23T08:36:26;1.90;;;1.80;;
31182;SDS011;17813;0.000;0.000;2024-03-23T08:38:54;2.50;;;1.80;;
31182;SDS011;17813;0.000;0.000;2024-03-23T08:41:21;1.60;;;1.50;;
31182;SDS011;17813;0.000;0.000;2024-03-23T08:43:47;1.37;;;1.27;;
31182;SDS011;17813;0.000;0.000;2024-03-23T08:46:15;1.97;;;1.00;;
31182;SDS011;17813;0.000;0.000;2024-03-23T08:48:46;1.20;;;1.10;;
31182;SDS011;17813;0.000;0.000;2024-03-23T08:51:16;0.80;;;0.80;;
31182;SDS011;17813;0.000;0.000;2024-03-23T08:53:43;0.60;;;0.60;;
31182;SDS011;17813;0.000;0.000;2024-03-23T08:56:12;0.70;;;0.70;;
31182;SDS011;17813;0.000;0.000;2024-03-23T08:58:39;0.80;;;0.70;;
31182;SDS011;17813;0.000;0.000;2024-03-23T09:01:10;0.90;;;0.90;;
31182;SDS011;17813;0.000;0.000;2024-03-23T09:03:42;0.87;;;0.87;;
31182;SDS011;17813;0.000;0.000;2024-03-23T09:06:10;0.83;;;0.80;;
31182;SDS011;17813;0.000;0.000;2024-03-23T09:08:39;1.07;;;0.80;;
31182;SDS011;17813;0.000;0.000;2024-03-23T09:11:07;0.80;;;0.80;;
31182;SDS011;17813;0.000;0.000;2024-03-23T09:13:37;0.90;;;0.90;;
31182;SDS011;17813;0.000;0.000;2024-03-23T09:16:11;0.90;;;0.90;;
31182;SDS011;17813;0.000;0.000;2024-03-23T09:18:42;0.87;;;0.87;;
31182;SDS011;17813;0.000;0.000;2024-03-23T09:21:12;0.90;;;0.90;;
31182;SDS011;17813;0.000;0.000;2024-03-23T09:23:44;1.17;;;1.10;;
31182;SDS011;17813;0.000;0.000;2024-03-23T09:26:11;0.83;;;0.80;;
31182;SDS011;17813;0.000;0.000;2024-03-23T09:28:39;0.70;;;0.70;;
31182;SDS011;17813;0.000;0.000;2024-03-23T09:31:06;0.70;;;0.70;;
31182;SDS011;17813;0.000;0.000;2024-03-23T09:33:36;0.60;;;0.60;;
31182;SDS011;17813;0.000;0.000;2024-03-23T09:36:04;0.70;;;0.70;;
31182;SDS011;17813;0.000;0.000;2024-03-23T09:38:31;1.00;;;0.80;;
31182;SDS011;17813;0.000;0.000;2024-03-23T09:40:58;0.90;;;0.90;;
31182;SDS011;17813;0.000;0.000;2024-03-23T09:43:27;0.63;;;0.53;;
31182;SDS011;17813;0.000;0.000;2024-03-23T09:45:57;0.70;;;0.70;;
31182;SDS011;17813;0.000;0.000;2024-03-23T09:48:26;0.70;;;0.70;;
31182;SDS011;17813;0.000;0.000;2024-03-23T09:50:56;0.60;;;0.60;;
31182;SDS011;17813;0.000;0.000;2024-03-23T09:53:23;0.80;;;0.80;;
31182;SDS011;17813;0.000;0.000;2024-03-23T09:55:51;0.90;;;0.90;;
31182;SDS011;17813;0.000;0.000;2024-03-23T09:58:18;0.90;;;0.90;;
31182;SDS011;17813;0.000;0.000;2024-03-23T10:00:46;0.60;;;0.60;;
31182;SDS011;17813;0.000;0.000;2024-03-23T10:03:14;0.50;;;0.50;;
31182;SDS011;17813;0.000;0.000;2024-03-23T10:05:41;0.50;;;0.50;;
31182;SDS011;17813;0.000;0.000;2024-03-23T10:10:42;0.50;;;0.50;;
31182;SDS011;17813;0.000;0.000;2024-03-23T10:13:11;0.50;;;0.50;;
31182;SDS011;17813;0.000;0.000;2024-03-23T10:15:59;1.33;;;0.40;;
31182;SDS011;17813;0.000;0.000;2024-03-23T10:18:28;0.40;;;0.40;;
31182;SDS011;17813;0.000;0.000;2024-03-23T10:21:08;0.40;;;0.40;;
31182;SDS011;17813;0.000;0.000;2024-03-23T10:23:38;0.17;;;0.17;;
31182;SDS011;17813;0.000;0.000;2024-03-23T10:28:55;0.47;;;0.43;;
31182;SDS011;17813;0.000;0.000;2024-03-23T10:31:28;0.30;;;0.30;;
31182;SDS011;17813;0.000;0.000;2024-03-23T10:33:55;0.37;;;0.37;;
31182;SDS011;17813;0.000;0.000;2024-03-23T10:36:23;0.60;;;0.60;;
31182;SDS011;17813;0.000;0.000;2024-03-23T10:38:54;0.50;;;0.50;;
31182;SDS011;17813;0.000;0.000;2024-03-23T10:41:37;0.40;;;0.40;;
31182;SDS011;17813;0.000;0.000;2024-03-23T10:44:06;0.97;;;0.50;;
31182;SDS011;17813;0.000;0.000;2024-03-23T10:46:34;0.60;;;0.60;;
31182;SDS011;17813;0.000;0.000;2024-03-23T10:49:03;0.50;;;0.50;;
31182;SDS011;17813;0.000;0.000;2024-03-23T10:51:30;0.60;;;0.60;;
31182;SDS011;17813;0.000;0.000;2024-03-23T10:53:59;1.10;;;0.60;;
31182;SDS011;17813;0.000;0.000;2024-03-23T10:56:30;0.60;;;0.60;;
31182;SDS011;17813;0.000;0.000;2024-03-23T10:59:02;1.10;;;0.87;;
31182;SDS011;17813;0.000;0.000;2024-03-23T11:01:32;0.70;;;0.70;;
31182;SDS011;17813;0.000;0.000;2024-03-23T11:03:59;0.80;;;0.80;;
31182;SDS011;17813;0.000;0.000;2024-03-23T11:06:38;0.90;;;0.90;;
31182;SDS011;17813;0.000;0.000;2024-03-23T11:14:57;2.67;;;1.17;;
31182;SDS011;17813;0.000;0.000;2024-03-23T11:17:25;2.67;;;1.20;;
31182;SDS011;17813;0.000;0.000;2024-03-23T11:20:01;2.53;;;1.27;;
31182;SDS011;17813;0.000;0.000;2024-03-23T11:22:40;2.30;;;1.30;;
31182;SDS011;17813;0.000;0.000;2024-03-23T11:25:22;3.23;;;1.50;;
31182;SDS011;17813;0.000;0.000;2024-03-23T11:27:52;2.60;;;1.60;;
31182;SDS011;17813;0.000;0.000;2024-03-23T11:30:26;2.37;;;1.30;;
31182;SDS011;17813;0.000;0.000;2024-03-23T11:33:23;3.73;;;1.57;;
31182;SDS011;17813;0.000;0.000;2024-03-23T11:36:06;1.73;;;1.30;;
31182;SDS011;17813;0.000;0.000;2024-03-23T11:38:36;3.80;;;1.40;;
31182;SDS011;17813;0.000;0.000;2024-03-23T11:41:03;2.07;;;1.40;;
31182;SDS011;17813;0.000;0.000;2024-03-23T11:43:30;2.40;;;1.70;;
31182;SDS011;17813;0.000;0.000;2024-03-23T11:45:57;2.93;;;1.70;;
31182;SDS011;17813;0.000;0.000;2024-03-23T11:48:28;3.17;;;1.53;;
31182;SDS011;17813;0.000;0.000;2024-03-23T11:50:56;2.83;;;1.70;;
31182;SDS011;17813;0.000;0.000;2024-03-23T11:53:24;3.17;;;1.70;;
31182;SDS011;17813;0.000;0.000;2024-03-23T11:55:58;3.00;;;1.60;;
31182;SDS011;17813;0.000;0.000;2024-03-23T11:58:27;3.43;;;1.73;;
31182;SDS011;17813;0.000;0.000;2024-03-23T12:00:59;3.77;;;2.00;;
31182;SDS011;17813;0.000;0.000;2024-03-23T12:03:31;4.73;;;2.13;;
31182;SDS011;17813;0.000;0.000;2024-03-23T12:06:01;4.83;;;2.10;;
31182;SDS011;17813;0.000;0.000;2024-03-23T12:08:34;4.13;;;2.10;;
31182;SDS011;17813;0.000;0.000;2024-03-23T12:13:41;3.43;;;2.00;;
31182;SDS011;17813;0.000;0.000;2024-03-23T12:16:15;4.43;;;2.20;;
31182;SDS011;17813;0.000;0.000;2024-03-23T12:18:47;4.20;;;2.40;;
31182;SDS011;17813;0.000;0.000;2024-03-23T12:21:15;4.80;;;2.60;;
31182;SDS011;17813;0.000;0.000;2024-03-23T12:23:43;4.33;;;2.47;;
31182;SDS011;17813;0.000;0.000;2024-03-23T12:26:14;4.77;;;2.10;;
31182;SDS011;17813;0.000;0.000;2024-03-23T12:28:47;3.80;;;2.53;;
31182;SDS011;17813;0.000;0.000;2024-03-23T12:31:14;4.77;;;2.60;;
31182;SDS011;17813;0.000;0.000;2024-03-23T12:33:41;4.17;;;2.33;;
31182;SDS011;17813;0.000;0.000;2024-03-23T12:36:12;3.33;;;2.57;;
31182;SDS011;17813;0.000;0.000;2024-03-23T12:38:39;5.43;;;2.63;;
31182;SDS011;17813;0.000;0.000;2024-03-23T12:41:07;4.83;;;2.60;;
31182;SDS011;17813;0.000;0.000;2024-03-23T12:43:36;5.03;;;2.87;;
31182;SDS011;17813;0.000;0.000;2024-03-23T12:46:03;5.57;;;2.70;;
31182;SDS011;17813;0.000;0.000;2024-03-23T12:48:31;3.80;;;2.10;;
31182;SDS011;17813;0.000;0.000;2024-03-23T12:50:58;5.87;;;2.83;;
31182;SDS011;17813;0.000;0.000;2024-03-23T12:53:26;5.33;;;2.60;;
31182;SDS011;17813;0.000;0.000;2024-03-23T12:55:54;5.30;;;2.93;;
31182;SDS011;17813;0.000;0.000;2024-03-23T12:58:22;6.97;;;4.03;;
31182;SDS011;17813;0.000;0.000;2024-03-23T13:00:49;4.27;;;2.60;;
31182;SDS011;17813;0.000;0.000;2024-03-23T13:03:17;4.93;;;2.80;;
31182;SDS011;17813;0.000;0.000;2024-03-23T13:05:46;5.77;;;3.20;;
31182;SDS011;17813;0.000;0.000;2024-03-23T13:08:19;6.83;;;3.50;;
31182;SDS011;17813;0.000;0.000;2024-03-23T13:10:47;6.53;;;3.60;;
31182;SDS011;17813;0.000;0.000;2024-03-23T13:13:18;6.00;;;3.00;;
31182;SDS011;17813;0.000;0.000;2024-03-23T13:15:50;5.60;;;3.43;;
31182;SDS011;17813;0.000;0.000;2024-03-23T13:18:18;5.50;;;3.57;;
31182;SDS011;17813;0.000;0.000;2024-03-23T13:20:45;5.20;;;3.47;;
31182;SDS011;17813;0.000;0.000;2024-03-23T13:23:12;6.20;;;3.70;;
31182;SDS011;17813;0.000;0.000;2024-03-23T13:25:39;5.50;;;3.83;;
31182;SDS011;17813;0.000;0.000;2024-03-23T13:28:27;6.53;;;3.73;;
31182;SDS011;17813;0.000;0.000;2024-03-23T13:30:56;7.60;;;4.10;;
31182;SDS011;17813;0.000;0.000;2024-03-23T13:33:24;7.13;;;3.90;;
31182;SDS011;17813;0.000;0.000;2024-03-23T13:35:55;4.97;;;3.23;;
31182;SDS011;17813;0.000;0.000;2024-03-23T13:38:23;5.53;;;2.97;;
31182;SDS011;17813;0.000;0.000;2024-03-23T13:41:00;4.93;;;3.10;;
31182;SDS011;17813;0.000;0.000;2024-03-23T13:43:33;5.50;;;2.93;;
31182;SDS011;17813;0.000;0.000;2024-03-23T13:46:00;5.03;;;2.80;;
31182;SDS011;17813;0.000;0.000;2024-03-23T13:48:27;3.97;;;2.43;;
31182;SDS011;17813;0.000;0.000;2024-03-23T13:51:03;4.07;;;2.40;;
31182;SDS011;17813;0.000;0.000;2024-03-23T13:53:32;3.90;;;2.23;;
31182;SDS011;17813;0.000;0.000;2024-03-23T13:56:01;2.70;;;2.10;;
31182;SDS011;17813;0.000;0.000;2024-03-23T13:58:28;4.37;;;2.13;;
31182;SDS011;17813;0.000;0.000;2024-03-23T14:00:57;4.07;;;2.10;;
31182;SDS011;17813;0.000;0.000;2024-03-23T14:03:27;3.57;;;1.80;;
31182;SDS011;17813;0.000;0.000;2024-03-23T14:05:58;4.13;;;2.30;;
31182;SDS011;17813;0.000;0.000;2024-03-23T14:08:28;2.83;;;1.90;;
31182;SDS011;17813;0.000;0.000;2024-03-23T14:10:59;3.80;;;2.20;;
31182;SDS011;17813;0.000;0.000;2024-03-23T14:13:27;3.47;;;2.17;;
31182;SDS011;17813;0.000;0.000;2024-03-23T14:15:57;4.50;;;2.20;;
31182;SDS011;17813;0.000;0.000;2024-03-23T14:18:25;2.77;;;2.03;;
31182;SDS011;17813;0.000;0.000;2024-03-23T14:20:55;3.13;;;2.20;;
31182;SDS011;17813;0.000;0.000;2024-03-23T14:23:28;2.63;;;2.07;;
31182;SDS011;17813;0.000;0.000;2024-03-23T14:26:00;3.00;;;2.20;;
31182;SDS011;17813;0.000;0.000;2024-03-23T14:28:29;4.47;;;2.30;;
31182;SDS011;17813;0.000;0.000;2024-03-23T14:30:57;3.83;;;2.43;;
31182;SDS011;17813;0.000;0.000;2024-03-23T14:33:25;3.33;;;2.13;;
31182;SDS011;17813;0.000;0.000;2024-03-23T14:35:57;5.00;;;2.80;;
31182;SDS011;17813;0.000;0.000;2024-03-23T14:38:24;4.43;;;2.40;;
31182;SDS011;17813;0.000;0.000;2024-03-23T14:40:57;3.73;;;2.23;;
31182;SDS011;17813;0.000;0.000;2024-03-23T14:43:26;4.20;;;2.00;;
31182;SDS011;17813;0.000;0.000;2024-03-23T14:46:06;3.27;;;2.10;;
31182;SDS011;17813;0.000;0.000;2024-03-23T14:48:38;2.73;;;2.03;;
31182;SDS011;17813;0.000;0.000;2024-03-23T14:51:06;3.40;;;1.90;;
31182;SDS011;17813;0.000;0.000;2024-03-23T14:53:35;5.77;;;2.10;;
31182;SDS011;17813;0.000;0.000;2024-03-23T14:56:05;2.53;;;2.10;;
31182;SDS011;17813;0.000;0.000;2024-03-23T14:58:35;5.17;;;2.33;;
31182;SDS011;17813;0.000;0.000;2024-03-23T15:01:06;3.63;;;2.20;;
31182;SDS011;17813;0.000;0.000;2024-03-23T15:03:37;2.10;;;1.90;;
31182;SDS011;17813;0.000;0.000;2024-03-23T15:06:07;3.03;;;1.90;;
31182;SDS011;17813;0.000;0.000;2024-03-23T15:08:41;3.73;;;2.13;;
31182;SDS011;17813;0.000;0.000;2024-03-23T15:11:08;4.13;;;1.83;;
31182;SDS011;17813;0.000;0.000;2024-03-23T15:13:37;2.57;;;1.70;;
31182;SDS011;17813;0.000;0.000;2024-03-23T15:16:04;4.90;;;1.90;;
31182;SDS011;17813;0.000;0.000;2024-03-23T15:18:32;4.57;;;1.93;;
31182;SDS011;17813;0.000;0.000;2024-03-23T15:21:01;3.80;;;1.70;;
31182;SDS011;17813;0.000;0.000;2024-03-23T15:23:36;3.97;;;1.50;;
31182;SDS011;17813;0.000;0.000;2024-03-23T15:26:04;1.67;;;1.40;;
31182;SDS011;17813;0.000;0.000;2024-03-23T15:28:32;2.53;;;1.40;;
31182;SDS011;17813;0.000;0.000;2024-03-23T15:31:17;1.50;;;1.40;;
31182;SDS011;17813;0.000;0.000;2024-03-23T15:33:44;1.50;;;1.30;;
31182;SDS011;17813;0.000;0.000;2024-03-23T15:36:12;1.50;;;1.40;;
31182;SDS011;17813;0.000;0.000;2024-03-23T15:38:44;3.03;;;1.50;;
31182;SDS011;17813;0.000;0.000;2024-03-23T15:41:12;1.63;;;1.40;;
31182;SDS011;17813;0.000;0.000;2024-03-23T15:43:42;1.40;;;1.20;;
31182;SDS011;17813;0.000;0.000;2024-03-23T15:46:10;1.60;;;1.20;;
31182;SDS011;17813;0.000;0.000;2024-03-23T15:48:40;2.07;;;1.60;;
31182;SDS011;17813;0.000;0.000;2024-03-23T15:51:12;2.40;;;1.20;;
31182;SDS011;17813;0.000;0.000;2024-03-23T15:53:39;1.50;;;1.40;;
31182;SDS011;17813;0.000;0.000;2024-03-23T15:56:09;1.17;;;1.10;;
31182;SDS011;17813;0.000;0.000;2024-03-23T15:58:54;2.57;;;1.30;;
31182;SDS011;17813;0.000;0.000;2024-03-23T16:01:28;2.03;;;1.33;;
31182;SDS011;17813;0.000;0.000;2024-03-23T16:03:55;1.70;;;1.17;;
31182;SDS011;17813;0.000;0.000;2024-03-23T16:06:23;1.97;;;1.30;;